Terminal Aerodrome Forecast
Issued by NWS Charleston, WV

Current Version | Previous Version | Text Only | Print | Product List | Glossary Off
Versions: 1 2 3 4 5 6 7 8 9 10 11 12 13 14 15 16 17 18 19 20

000
FTUS41 KRLX 271122
TAFPKB
TAF
KPKB 271122Z 2712/2812 15005KT 2SM SHRA BR BKN040
      TEMPO 2712/2714 4SM SHRA BR BKN025
     FM271400 18007KT 4SM SHRA BR OVC015
     FM271600 20008KT P6SM SHRA VCTS BKN015CB
     FM271700 21008KT P6SM VCTS BKN025CB
     FM272000 24009KT P6SM VCTS BKN025CB
     FM272300 25009KT P6SM BKN050
     FM280300 25010G15KT P6SM BKN025
     FM280700 25009KT P6SM BKN015=

USA.gov is the U.S. government's official web portal to all federal, state and local government web resources and services.